sensor_id;sensor_type;location;lat;lon;timestamp;P1;durP1;ratioP1;P2;durP2;ratioP2
2462;SDS011;1243;54.298;10.172;2023-03-20T00:00:25;4.20;;;3.57;;
2462;SDS011;1243;54.298;10.172;2023-03-20T00:02:55;5.37;;;4.50;;
2462;SDS011;1243;54.298;10.172;2023-03-20T00:05:22;6.20;;;5.60;;
2462;SDS011;1243;54.298;10.172;2023-03-20T00:07:48;6.90;;;6.20;;
2462;SDS011;1243;54.298;10.172;2023-03-20T00:10:15;7.27;;;4.87;;
2462;SDS011;1243;54.298;10.172;2023-03-20T00:12:44;8.63;;;5.17;;
2462;SDS011;1243;54.298;10.172;2023-03-20T00:15:45;8.17;;;5.47;;
2462;SDS011;1243;54.298;10.172;2023-03-20T00:18:13;11.37;;;5.73;;
2462;SDS011;1243;54.298;10.172;2023-03-20T00:20:39;9.40;;;5.97;;
2462;SDS011;1243;54.298;10.172;2023-03-20T00:23:04;7.20;;;5.20;;
2462;SDS011;1243;54.298;10.172;2023-03-20T00:25:30;6.77;;;6.10;;
2462;SDS011;1243;54.298;10.172;2023-03-20T00:27:56;6.20;;;5.60;;
2462;SDS011;1243;54.298;10.172;2023-03-20T00:30:28;8.47;;;5.77;;
2462;SDS011;1243;54.298;10.172;2023-03-20T00:32:55;6.37;;;5.50;;
2462;SDS011;1243;54.298;10.172;2023-03-20T00:37:48;11.20;;;5.30;;
2462;SDS011;1243;54.298;10.172;2023-03-20T00:40:15;4.67;;;4.23;;
2462;SDS011;1243;54.298;10.172;2023-03-20T00:42:41;8.00;;;4.90;;
2462;SDS011;1243;54.298;10.172;2023-03-20T00:45:12;6.13;;;5.60;;
2462;SDS011;1243;54.298;10.172;2023-03-20T00:47:42;6.17;;;4.73;;
2462;SDS011;1243;54.298;10.172;2023-03-20T00:50:19;6.23;;;4.07;;
2462;SDS011;1243;54.298;10.172;2023-03-20T00:52:47;6.33;;;5.30;;
2462;SDS011;1243;54.298;10.172;2023-03-20T00:55:14;6.33;;;5.57;;
2462;SDS011;1243;54.298;10.172;2023-03-20T00:57:42;9.10;;;5.67;;
2462;SDS011;1243;54.298;10.172;2023-03-20T01:02:57;5.03;;;4.57;;
2462;SDS011;1243;54.298;10.172;2023-03-20T01:05:23;5.67;;;4.50;;
2462;SDS011;1243;54.298;10.172;2023-03-20T01:07:51;5.00;;;4.50;;
2462;SDS011;1243;54.298;10.172;2023-03-20T01:10:17;3.53;;;3.23;;
2462;SDS011;1243;54.298;10.172;2023-03-20T01:12:43;6.00;;;5.17;;
2462;SDS011;1243;54.298;10.172;2023-03-20T01:15:15;7.27;;;4.40;;
2462;SDS011;1243;54.298;10.172;2023-03-20T01:17:46;6.73;;;6.03;;
2462;SDS011;1243;54.298;10.172;2023-03-20T01:20:23;8.70;;;6.67;;
2462;SDS011;1243;54.298;10.172;2023-03-20T01:22:51;8.30;;;6.70;;
2462;SDS011;1243;54.298;10.172;2023-03-20T01:25:17;8.23;;;7.43;;
2462;SDS011;1243;54.298;10.172;2023-03-20T01:27:48;7.40;;;6.60;;
2462;SDS011;1243;54.298;10.172;2023-03-20T01:32:52;13.50;;;6.70;;
2462;SDS011;1243;54.298;10.172;2023-03-20T01:35:19;5.97;;;4.60;;
2462;SDS011;1243;54.298;10.172;2023-03-20T01:37:46;5.30;;;4.80;;
2462;SDS011;1243;54.298;10.172;2023-03-20T01:40:18;6.67;;;5.37;;
2462;SDS011;1243;54.298;10.172;2023-03-20T01:42:53;10.53;;;6.43;;
2462;SDS011;1243;54.298;10.172;2023-03-20T01:45:21;11.70;;;8.17;;
2462;SDS011;1243;54.298;10.172;2023-03-20T01:47:50;9.30;;;7.97;;
2462;SDS011;1243;54.298;10.172;2023-03-20T01:50:20;8.20;;;7.30;;
2462;SDS011;1243;54.298;10.172;2023-03-20T01:52:52;10.00;;;7.87;;
2462;SDS011;1243;54.298;10.172;2023-03-20T01:55:31;16.63;;;8.70;;
2462;SDS011;1243;54.298;10.172;2023-03-20T01:57:59;8.07;;;7.23;;
2462;SDS011;1243;54.298;10.172;2023-03-20T02:00:27;7.73;;;6.73;;
2462;SDS011;1243;54.298;10.172;2023-03-20T02:02:52;8.37;;;6.77;;
2462;SDS011;1243;54.298;10.172;2023-03-20T02:05:20;9.47;;;6.60;;
2462;SDS011;1243;54.298;10.172;2023-03-20T02:07:53;7.63;;;6.03;;
2462;SDS011;1243;54.298;10.172;2023-03-20T02:10:26;8.90;;;7.43;;
2462;SDS011;1243;54.298;10.172;2023-03-20T02:12:52;7.40;;;6.47;;
2462;SDS011;1243;54.298;10.172;2023-03-20T02:15:19;8.13;;;5.50;;
2462;SDS011;1243;54.298;10.172;2023-03-20T02:17:44;8.70;;;6.37;;
2462;SDS011;1243;54.298;10.172;2023-03-20T02:23:09;5.73;;;5.23;;
2462;SDS011;1243;54.298;10.172;2023-03-20T02:32:02;6.93;;;6.30;;
2462;SDS011;1243;54.298;10.172;2023-03-20T02:35:02;6.40;;;5.67;;
2462;SDS011;1243;54.298;10.172;2023-03-20T02:56:27;7.13;;;6.40;;
2462;SDS011;1243;54.298;10.172;2023-03-20T03:02:03;11.40;;;8.00;;
2462;SDS011;1243;54.298;10.172;2023-03-20T03:04:43;7.77;;;6.90;;
2462;SDS011;1243;54.298;10.172;2023-03-20T03:07:15;9.63;;;7.03;;
2462;SDS011;1243;54.298;10.172;2023-03-20T03:09:51;8.80;;;7.07;;
2462;SDS011;1243;54.298;10.172;2023-03-20T03:12:22;9.63;;;6.60;;
2462;SDS011;1243;54.298;10.172;2023-03-20T03:14:52;6.67;;;5.20;;
2462;SDS011;1243;54.298;10.172;2023-03-20T03:17:22;7.13;;;5.00;;
2462;SDS011;1243;54.298;10.172;2023-03-20T03:19:53;7.97;;;6.33;;
2462;SDS011;1243;54.298;10.172;2023-03-20T03:22:24;5.20;;;4.60;;
2462;SDS011;1243;54.298;10.172;2023-03-20T03:24:52;6.03;;;4.33;;
2462;SDS011;1243;54.298;10.172;2023-03-20T03:27:20;6.00;;;4.43;;
2462;SDS011;1243;54.298;10.172;2023-03-20T03:29:57;7.30;;;4.70;;
2462;SDS011;1243;54.298;10.172;2023-03-20T03:32:34;6.00;;;4.43;;
2462;SDS011;1243;54.298;10.172;2023-03-20T03:35:03;6.13;;;4.30;;
2462;SDS011;1243;54.298;10.172;2023-03-20T03:37:42;5.50;;;4.00;;
2462;SDS011;1243;54.298;10.172;2023-03-20T03:43:32;4.83;;;4.33;;
2462;SDS011;1243;54.298;10.172;2023-03-20T03:46:11;6.77;;;4.27;;
2462;SDS011;1243;54.298;10.172;2023-03-20T03:48:46;4.83;;;4.30;;
2462;SDS011;1243;54.298;10.172;2023-03-20T03:51:16;5.03;;;4.13;;
2462;SDS011;1243;54.298;10.172;2023-03-20T03:53:51;6.50;;;4.57;;
2462;SDS011;1243;54.298;10.172;2023-03-20T03:56:26;6.00;;;4.70;;
2462;SDS011;1243;54.298;10.172;2023-03-20T03:58:55;5.00;;;4.60;;
2462;SDS011;1243;54.298;10.172;2023-03-20T04:01:28;5.50;;;4.90;;
2462;SDS011;1243;54.298;10.172;2023-03-20T04:03:59;5.47;;;5.00;;
2462;SDS011;1243;54.298;10.172;2023-03-20T04:06:27;6.57;;;5.87;;
2462;SDS011;1243;54.298;10.172;2023-03-20T04:08:53;4.63;;;4.23;;
2462;SDS011;1243;54.298;10.172;2023-03-20T04:11:20;6.00;;;5.53;;
2462;SDS011;1243;54.298;10.172;2023-03-20T04:13:49;6.63;;;5.30;;
2462;SDS011;1243;54.298;10.172;2023-03-20T04:16:16;9.40;;;5.47;;
2462;SDS011;1243;54.298;10.172;2023-03-20T04:18:43;8.10;;;5.63;;
2462;SDS011;1243;54.298;10.172;2023-03-20T04:21:09;9.00;;;5.80;;
2462;SDS011;1243;54.298;10.172;2023-03-20T04:23:35;8.70;;;4.30;;
2462;SDS011;1243;54.298;10.172;2023-03-20T04:26:02;5.57;;;4.33;;
2462;SDS011;1243;54.298;10.172;2023-03-20T04:28:28;8.33;;;6.20;;
2462;SDS011;1243;54.298;10.172;2023-03-20T04:30:54;7.00;;;5.03;;
2462;SDS011;1243;54.298;10.172;2023-03-20T04:33:22;5.20;;;4.70;;
2462;SDS011;1243;54.298;10.172;2023-03-20T04:35:49;5.43;;;4.93;;
2462;SDS011;1243;54.298;10.172;2023-03-20T04:38:15;5.50;;;4.97;;
2462;SDS011;1243;54.298;10.172;2023-03-20T04:40:42;3.97;;;3.67;;
2462;SDS011;1243;54.298;10.172;2023-03-20T04:43:08;5.43;;;4.93;;
2462;SDS011;1243;54.298;10.172;2023-03-20T04:45:34;6.90;;;5.10;;
2462;SDS011;1243;54.298;10.172;2023-03-20T04:48:00;5.87;;;5.13;;
2462;SDS011;1243;54.298;10.172;2023-03-20T04:50:26;6.00;;;5.40;;
2462;SDS011;1243;54.298;10.172;2023-03-20T04:52:52;6.50;;;5.87;;
2462;SDS011;1243;54.298;10.172;2023-03-20T04:55:18;9.67;;;6.47;;
2462;SDS011;1243;54.298;10.172;2023-03-20T04:57:44;7.50;;;5.77;;
2462;SDS011;1243;54.298;10.172;2023-03-20T05:00:10;7.80;;;4.77;;
2462;SDS011;1243;54.298;10.172;2023-03-20T05:02:36;6.50;;;5.90;;
2462;SDS011;1243;54.298;10.172;2023-03-20T05:05:02;9.03;;;6.63;;
2462;SDS011;1243;54.298;10.172;2023-03-20T05:07:28;10.00;;;7.97;;
2462;SDS011;1243;54.298;10.172;2023-03-20T05:09:54;10.60;;;7.00;;
2462;SDS011;1243;54.298;10.172;2023-03-20T05:12:19;9.93;;;7.47;;
2462;SDS011;1243;54.298;10.172;2023-03-20T05:14:46;14.20;;;7.30;;
2462;SDS011;1243;54.298;10.172;2023-03-20T05:17:12;6.30;;;5.63;;
2462;SDS011;1243;54.298;10.172;2023-03-20T05:19:38;12.10;;;8.47;;
2462;SDS011;1243;54.298;10.172;2023-03-20T05:22:04;12.47;;;6.40;;
2462;SDS011;1243;54.298;10.172;2023-03-20T05:24:30;7.20;;;6.60;;
2462;SDS011;1243;54.298;10.172;2023-03-20T05:26:56;7.97;;;6.47;;
2462;SDS011;1243;54.298;10.172;2023-03-20T05:29:21;8.07;;;5.87;;
2462;SDS011;1243;54.298;10.172;2023-03-20T05:31:47;7.67;;;5.80;;
2462;SDS011;1243;54.298;10.172;2023-03-20T05:34:13;7.70;;;5.60;;
2462;SDS011;1243;54.298;10.172;2023-03-20T05:36:39;7.07;;;5.50;;
2462;SDS011;1243;54.298;10.172;2023-03-20T05:39:05;6.03;;;4.53;;
2462;SDS011;1243;54.298;10.172;2023-03-20T05:41:31;9.50;;;5.93;;
2462;SDS011;1243;54.298;10.172;2023-03-20T05:43:56;5.60;;;5.10;;
2462;SDS011;1243;54.298;10.172;2023-03-20T05:46:22;8.60;;;6.00;;
2462;SDS011;1243;54.298;10.172;2023-03-20T05:48:48;6.20;;;5.40;;
2462;SDS011;1243;54.298;10.172;2023-03-20T05:51:14;7.83;;;5.60;;
2462;SDS011;1243;54.298;10.172;2023-03-20T05:53:40;10.20;;;5.80;;
2462;SDS011;1243;54.298;10.172;2023-03-20T05:56:05;6.33;;;5.73;;
2462;SDS011;1243;54.298;10.172;2023-03-20T05:58:32;5.47;;;4.97;;
2462;SDS011;1243;54.298;10.172;2023-03-20T06:00:59;6.73;;;5.67;;
2462;SDS011;1243;54.298;10.172;2023-03-20T06:03:24;7.73;;;5.30;;
2462;SDS011;1243;54.298;10.172;2023-03-20T06:05:50;13.90;;;7.87;;
2462;SDS011;1243;54.298;10.172;2023-03-20T06:08:16;9.17;;;6.60;;
2462;SDS011;1243;54.298;10.172;2023-03-20T06:10:41;16.40;;;8.90;;
2462;SDS011;1243;54.298;10.172;2023-03-20T06:13:07;9.70;;;8.33;;
2462;SDS011;1243;54.298;10.172;2023-03-20T06:15:33;11.93;;;8.30;;
2462;SDS011;1243;54.298;10.172;2023-03-20T06:17:59;13.47;;;9.60;;
2462;SDS011;1243;54.298;10.172;2023-03-20T06:20:25;12.57;;;8.60;;
2462;SDS011;1243;54.298;10.172;2023-03-20T06:22:50;16.20;;;9.90;;
2462;SDS011;1243;54.298;10.172;2023-03-20T06:25:17;12.40;;;11.10;;
2462;SDS011;1243;54.298;10.172;2023-03-20T06:27:44;15.30;;;10.60;;
2462;SDS011;1243;54.298;10.172;2023-03-20T06:30:12;18.80;;;12.10;;
2462;SDS011;1243;54.298;10.172;2023-03-20T06:32:38;11.43;;;10.20;;
2462;SDS011;1243;54.298;10.172;2023-03-20T06:35:04;14.40;;;10.80;;
2462;SDS011;1243;54.298;10.172;2023-03-20T06:37:30;15.87;;;10.20;;
2462;SDS011;1243;54.298;10.172;2023-03-20T06:39:56;15.20;;;10.07;;
2462;SDS011;1243;54.298;10.172;2023-03-20T06:42:22;18.53;;;10.33;;
2462;SDS011;1243;54.298;10.172;2023-03-20T06:44:48;12.27;;;9.20;;
2462;SDS011;1243;54.298;10.172;2023-03-20T06:47:14;10.17;;;9.13;;
2462;SDS011;1243;54.298;10.172;2023-03-20T06:49:40;12.80;;;8.40;;
2462;SDS011;1243;54.298;10.172;2023-03-20T06:52:06;17.00;;;8.90;;
2462;SDS011;1243;54.298;10.172;2023-03-20T06:54:33;17.87;;;9.23;;
2462;SDS011;1243;54.298;10.172;2023-03-20T06:56:58;22.37;;;8.60;;
2462;SDS011;1243;54.298;10.172;2023-03-20T06:59:24;10.90;;;9.60;;
2462;SDS011;1243;54.298;10.172;2023-03-20T07:01:51;18.80;;;9.47;;
2462;SDS011;1243;54.298;10.172;2023-03-20T07:04:16;12.23;;;9.40;;
2462;SDS011;1243;54.298;10.172;2023-03-20T07:06:42;11.53;;;9.70;;
2462;SDS011;1243;54.298;10.172;2023-03-20T07:09:08;23.17;;;11.37;;
2462;SDS011;1243;54.298;10.172;2023-03-20T07:11:34;19.37;;;12.20;;
2462;SDS011;1243;54.298;10.172;2023-03-20T07:14:00;16.23;;;11.40;;
2462;SDS011;1243;54.298;10.172;2023-03-20T07:16:25;20.90;;;12.40;;
2462;SDS011;1243;54.298;10.172;2023-03-20T07:18:51;11.43;;;9.20;;
2462;SDS011;1243;54.298;10.172;2023-03-20T07:21:18;13.90;;;9.10;;
2462;SDS011;1243;54.298;10.172;2023-03-20T07:23:45;15.00;;;9.33;;
2462;SDS011;1243;54.298;10.172;2023-03-20T07:26:11;17.97;;;10.87;;
2462;SDS011;1243;54.298;10.172;2023-03-20T07:28:38;15.03;;;9.60;;
2462;SDS011;1243;54.298;10.172;2023-03-20T07:31:03;17.00;;;9.33;;
2462;SDS011;1243;54.298;10.172;2023-03-20T07:33:29;11.57;;;9.13;;
2462;SDS011;1243;54.298;10.172;2023-03-20T07:35:55;12.00;;;7.97;;
2462;SDS011;1243;54.298;10.172;2023-03-20T07:38:22;10.90;;;8.40;;
2462;SDS011;1243;54.298;10.172;2023-03-20T07:40:48;9.93;;;7.50;;
2462;SDS011;1243;54.298;10.172;2023-03-20T07:43:14;8.53;;;7.03;;
2462;SDS011;1243;54.298;10.172;2023-03-20T07:45:40;8.47;;;7.20;;
2462;SDS011;1243;54.298;10.172;2023-03-20T07:48:06;11.43;;;7.00;;
2462;SDS011;1243;54.298;10.172;2023-03-20T07:50:32;10.80;;;6.53;;
2462;SDS011;1243;54.298;10.172;2023-03-20T07:52:58;10.83;;;7.13;;
2462;SDS011;1243;54.298;10.172;2023-03-20T07:55:23;7.23;;;6.63;;
2462;SDS011;1243;54.298;10.172;2023-03-20T07:57:49;9.80;;;6.70;;
2462;SDS011;1243;54.298;10.172;2023-03-20T08:00:15;6.63;;;5.40;;
2462;SDS011;1243;54.298;10.172;2023-03-20T08:02:42;6.80;;;6.07;;
2462;SDS011;1243;54.298;10.172;2023-03-20T08:05:09;12.43;;;5.50;;
2462;SDS011;1243;54.298;10.172;2023-03-20T08:07:34;9.20;;;6.67;;
2462;SDS011;1243;54.298;10.172;2023-03-20T08:10:00;5.03;;;4.63;;
2462;SDS011;1243;54.298;10.172;2023-03-20T08:12:27;8.77;;;5.90;;
2462;SDS011;1243;54.298;10.172;2023-03-20T08:14:53;7.30;;;5.70;;
2462;SDS011;1243;54.298;10.172;2023-03-20T08:17:18;5.83;;;5.27;;
2462;SDS011;1243;54.298;10.172;2023-03-20T08:19:44;6.27;;;5.27;;
2462;SDS011;1243;54.298;10.172;2023-03-20T08:22:10;6.60;;;5.93;;
2462;SDS011;1243;54.298;10.172;2023-03-20T08:24:36;5.50;;;5.00;;
2462;SDS011;1243;54.298;10.172;2023-03-20T08:27:02;12.20;;;5.27;;
2462;SDS011;1243;54.298;10.172;2023-03-20T08:29:28;10.67;;;6.00;;
2462;SDS011;1243;54.298;10.172;2023-03-20T08:31:53;10.63;;;6.67;;
2462;SDS011;1243;54.298;10.172;2023-03-20T08:34:20;7.50;;;5.73;;
2462;SDS011;1243;54.298;10.172;2023-03-20T08:36:45;8.73;;;6.43;;
2462;SDS011;1243;54.298;10.172;2023-03-20T08:39:11;6.50;;;5.40;;
2462;SDS011;1243;54.298;10.172;2023-03-20T08:41:37;6.77;;;5.60;;
2462;SDS011;1243;54.298;10.172;2023-03-20T08:44:03;9.27;;;6.43;;
2462;SDS011;1243;54.298;10.172;2023-03-20T08:46:30;7.47;;;6.20;;
2462;SDS011;1243;54.298;10.172;2023-03-20T08:48:56;9.13;;;8.13;;
2462;SDS011;1243;54.298;10.172;2023-03-20T08:51:23;10.83;;;7.40;;
2462;SDS011;1243;54.298;10.172;2023-03-20T08:53:49;10.67;;;8.67;;
2462;SDS011;1243;54.298;10.172;2023-03-20T08:56:15;10.90;;;7.67;;
2462;SDS011;1243;54.298;10.172;2023-03-20T08:58:41;11.10;;;8.83;;
2462;SDS011;1243;54.298;10.172;2023-03-20T09:01:07;13.97;;;9.20;;
2462;SDS011;1243;54.298;10.172;2023-03-20T09:03:34;13.33;;;9.43;;
2462;SDS011;1243;54.298;10.172;2023-03-20T09:06:03;16.40;;;9.20;;
2462;SDS011;1243;54.298;10.172;2023-03-20T09:08:31;14.67;;;10.63;;
2462;SDS011;1243;54.298;10.172;2023-03-20T09:10:57;13.77;;;10.60;;
2462;SDS011;1243;54.298;10.172;2023-03-20T09:13:22;17.37;;;11.67;;
2462;SDS011;1243;54.298;10.172;2023-03-20T09:15:49;14.10;;;10.87;;
2462;SDS011;1243;54.298;10.172;2023-03-20T09:18:15;18.90;;;10.70;;
2462;SDS011;1243;54.298;10.172;2023-03-20T09:20:41;16.90;;;12.07;;
2462;SDS011;1243;54.298;10.172;2023-03-20T09:23:07;18.20;;;12.20;;
2462;SDS011;1243;54.298;10.172;2023-03-20T09:25:33;15.23;;;11.57;;
2462;SDS011;1243;54.298;10.172;2023-03-20T09:27:58;14.93;;;11.90;;
2462;SDS011;1243;54.298;10.172;2023-03-20T09:30:24;18.57;;;13.37;;
2462;SDS011;1243;54.298;10.172;2023-03-20T09:32:50;21.23;;;13.70;;
2462;SDS011;1243;54.298;10.172;2023-03-20T09:35:16;18.50;;;11.77;;
2462;SDS011;1243;54.298;10.172;2023-03-20T09:37:43;18.13;;;12.60;;
2462;SDS011;1243;54.298;10.172;2023-03-20T09:40:17;16.80;;;12.03;;
2462;SDS011;1243;54.298;10.172;2023-03-20T09:45:51;23.27;;;12.83;;
2462;SDS011;1243;54.298;10.172;2023-03-20T09:48:48;19.73;;;13.33;;
2462;SDS011;1243;54.298;10.172;2023-03-20T09:51:37;24.00;;;14.73;;
2462;SDS011;1243;54.298;10.172;2023-03-20T09:54:32;20.73;;;14.80;;
2462;SDS011;1243;54.298;10.172;2023-03-20T09:57:04;20.43;;;15.43;;
2462;SDS011;1243;54.298;10.172;2023-03-20T09:59:35;17.60;;;13.43;;
2462;SDS011;1243;54.298;10.172;2023-03-20T10:02:15;21.83;;;14.53;;
2462;SDS011;1243;54.298;10.172;2023-03-20T10:04:52;21.53;;;14.37;;
2462;SDS011;1243;54.298;10.172;2023-03-20T10:07:19;20.07;;;14.77;;
2462;SDS011;1243;54.298;10.172;2023-03-20T10:09:45;22.50;;;14.30;;
2462;SDS011;1243;54.298;10.172;2023-03-20T10:15:07;21.20;;;14.60;;
2462;SDS011;1243;54.298;10.172;2023-03-20T10:18:25;21.20;;;13.53;;
2462;SDS011;1243;54.298;10.172;2023-03-20T10:26:21;20.50;;;14.17;;
2462;SDS011;1243;54.298;10.172;2023-03-20T10:42:19;23.30;;;16.20;;
2462;SDS011;1243;54.298;10.172;2023-03-20T10:45:01;20.30;;;12.90;;
2462;SDS011;1243;54.298;10.172;2023-03-20T10:47:37;17.53;;;13.07;;
2462;SDS011;1243;54.298;10.172;2023-03-20T10:50:10;23.30;;;14.40;;
2462;SDS011;1243;54.298;10.172;2023-03-20T10:52:44;25.60;;;14.90;;
2462;SDS011;1243;54.298;10.172;2023-03-20T10:55:15;17.33;;;12.67;;
2462;SDS011;1243;54.298;10.172;2023-03-20T10:58:18;21.30;;;13.80;;
2462;SDS011;1243;54.298;10.172;2023-03-20T11:00:47;19.17;;;12.30;;
2462;SDS011;1243;54.298;10.172;2023-03-20T11:03:27;20.00;;;13.23;;
2462;SDS011;1243;54.298;10.172;2023-03-20T11:08:30;16.97;;;11.67;;
2462;SDS011;1243;54.298;10.172;2023-03-20T11:11:01;20.03;;;11.57;;
2462;SDS011;1243;54.298;10.172;2023-03-20T11:18:46;14.97;;;11.10;;
2462;SDS011;1243;54.298;10.172;2023-03-20T11:21:20;16.50;;;9.70;;
2462;SDS011;1243;54.298;10.172;2023-03-20T11:23:48;22.50;;;11.43;;
2462;SDS011;1243;54.298;10.172;2023-03-20T11:26:37;16.97;;;11.90;;
2462;SDS011;1243;54.298;10.172;2023-03-20T11:29:01;12.60;;;9.73;;
2462;SDS011;1243;54.298;10.172;2023-03-20T11:31:34;13.37;;;11.20;;
2462;SDS011;1243;54.298;10.172;2023-03-20T11:37:01;20.63;;;10.47;;
2462;SDS011;1243;54.298;10.172;2023-03-20T11:39:30;15.30;;;9.83;;
2462;SDS011;1243;54.298;10.172;2023-03-20T11:42:01;21.83;;;11.80;;
2462;SDS011;1243;54.298;10.172;2023-03-20T11:44:31;13.83;;;9.97;;
2462;SDS011;1243;54.298;10.172;2023-03-20T11:46:59;16.40;;;10.93;;
2462;SDS011;1243;54.298;10.172;2023-03-20T11:49:30;19.00;;;11.20;;
2462;SDS011;1243;54.298;10.172;2023-03-20T11:51:59;17.90;;;10.10;;
2462;SDS011;1243;54.298;10.172;2023-03-20T11:54:56;17.23;;;9.93;;
2462;SDS011;1243;54.298;10.172;2023-03-20T12:02:35;17.93;;;11.80;;
2462;SDS011;1243;54.298;10.172;2023-03-20T12:05:16;13.33;;;10.13;;
2462;SDS011;1243;54.298;10.172;2023-03-20T12:07:45;18.37;;;12.07;;
2462;SDS011;1243;54.298;10.172;2023-03-20T12:10:13;16.07;;;9.80;;
2462;SDS011;1243;54.298;10.172;2023-03-20T12:15:16;18.87;;;12.13;;
2462;SDS011;1243;54.298;10.172;2023-03-20T12:17:55;17.90;;;11.07;;
2462;SDS011;1243;54.298;10.172;2023-03-20T12:23:01;16.70;;;11.90;;
2462;SDS011;1243;54.298;10.172;2023-03-20T12:25:42;16.97;;;11.10;;
2462;SDS011;1243;54.298;10.172;2023-03-20T12:31:48;21.57;;;13.60;;
2462;SDS011;1243;54.298;10.172;2023-03-20T12:34:23;21.47;;;12.57;;
2462;SDS011;1243;54.298;10.172;2023-03-20T12:36:58;17.77;;;12.73;;
2462;SDS011;1243;54.298;10.172;2023-03-20T12:39:38;15.90;;;10.53;;
2462;SDS011;1243;54.298;10.172;2023-03-20T12:44:49;22.60;;;11.83;;
2462;SDS011;1243;54.298;10.172;2023-03-20T13:11:44;14.60;;;9.80;;
2462;SDS011;1243;54.298;10.172;2023-03-20T13:20:15;19.73;;;11.13;;
2462;SDS011;1243;54.298;10.172;2023-03-20T13:28:40;18.07;;;10.50;;
2462;SDS011;1243;54.298;10.172;2023-03-20T13:31:39;15.70;;;10.50;;
2462;SDS011;1243;54.298;10.172;2023-03-20T13:34:31;18.33;;;10.67;;
2462;SDS011;1243;54.298;10.172;2023-03-20T13:42:20;13.07;;;9.00;;
2462;SDS011;1243;54.298;10.172;2023-03-20T13:44:48;20.93;;;11.20;;
2462;SDS011;1243;54.298;10.172;2023-03-20T13:47:23;13.47;;;9.50;;
2462;SDS011;1243;54.298;10.172;2023-03-20T13:49:56;11.90;;;9.80;;
2462;SDS011;1243;54.298;10.172;2023-03-20T13:52:44;18.50;;;9.93;;
2462;SDS011;1243;54.298;10.172;2023-03-20T14:03:31;16.70;;;9.97;;
2462;SDS011;1243;54.298;10.172;2023-03-20T14:09:28;12.00;;;8.40;;
2462;SDS011;1243;54.298;10.172;2023-03-20T14:11:54;12.20;;;8.20;;
2462;SDS011;1243;54.298;10.172;2023-03-20T14:19:33;15.33;;;8.40;;
2462;SDS011;1243;54.298;10.172;2023-03-20T14:22:01;15.00;;;9.40;;
2462;SDS011;1243;54.298;10.172;2023-03-20T14:24:28;16.43;;;9.63;;
2462;SDS011;1243;54.298;10.172;2023-03-20T14:26:55;11.90;;;9.50;;
2462;SDS011;1243;54.298;10.172;2023-03-20T14:34:50;13.03;;;10.50;;
2462;SDS011;1243;54.298;10.172;2023-03-20T14:40:13;13.87;;;9.43;;
2462;SDS011;1243;54.298;10.172;2023-03-20T14:50:35;14.70;;;8.67;;
2462;SDS011;1243;54.298;10.172;2023-03-20T15:01:00;13.63;;;9.47;;
2462;SDS011;1243;54.298;10.172;2023-03-20T15:03:28;15.80;;;9.50;;
2462;SDS011;1243;54.298;10.172;2023-03-20T15:05:56;9.70;;;8.73;;
2462;SDS011;1243;54.298;10.172;2023-03-20T15:08:29;12.77;;;9.43;;
2462;SDS011;1243;54.298;10.172;2023-03-20T15:10:58;13.40;;;9.70;;
2462;SDS011;1243;54.298;10.172;2023-03-20T15:13:30;11.80;;;9.07;;
2462;SDS011;1243;54.298;10.172;2023-03-20T15:23:39;21.53;;;12.27;;
2462;SDS011;1243;54.298;10.172;2023-03-20T15:26:06;11.40;;;9.83;;
2462;SDS011;1243;54.298;10.172;2023-03-20T15:28:32;17.97;;;10.83;;
2462;SDS011;1243;54.298;10.172;2023-03-20T15:31:02;15.57;;;11.53;;
2462;SDS011;1243;54.298;10.172;2023-03-20T15:33:34;17.80;;;12.97;;
2462;SDS011;1243;54.298;10.172;2023-03-20T15:36:24;17.57;;;12.53;;
2462;SDS011;1243;54.298;10.172;2023-03-20T15:38:52;20.33;;;14.17;;
2462;SDS011;1243;54.298;10.172;2023-03-20T15:41:32;20.17;;;14.70;;
2462;SDS011;1243;54.298;10.172;2023-03-20T15:44:07;16.30;;;12.00;;
2462;SDS011;1243;54.298;10.172;2023-03-20T15:47:03;24.50;;;14.00;;
2462;SDS011;1243;54.298;10.172;2023-03-20T15:49:48;16.23;;;12.77;;
2462;SDS011;1243;54.298;10.172;2023-03-20T15:52:21;18.00;;;13.00;;
2462;SDS011;1243;54.298;10.172;2023-03-20T15:55:04;16.27;;;13.37;;
2462;SDS011;1243;54.298;10.172;2023-03-20T15:57:36;18.03;;;13.20;;
2462;SDS011;1243;54.298;10.172;2023-03-20T16:00:05;21.00;;;14.37;;
2462;SDS011;1243;54.298;10.172;2023-03-20T16:02:37;19.77;;;14.17;;
2462;SDS011;1243;54.298;10.172;2023-03-20T16:05:03;20.93;;;13.57;;
2462;SDS011;1243;54.298;10.172;2023-03-20T16:07:33;23.10;;;14.07;;
2462;SDS011;1243;54.298;10.172;2023-03-20T16:09:58;17.30;;;12.23;;
2462;SDS011;1243;54.298;10.172;2023-03-20T16:12:25;19.43;;;13.40;;
2462;SDS011;1243;54.298;10.172;2023-03-20T16:14:51;16.60;;;13.03;;
2462;SDS011;1243;54.298;10.172;2023-03-20T16:17:18;15.40;;;12.90;;
2462;SDS011;1243;54.298;10.172;2023-03-20T16:19:46;24.70;;;15.60;;
2462;SDS011;1243;54.298;10.172;2023-03-20T16:22:20;18.03;;;14.03;;
2462;SDS011;1243;54.298;10.172;2023-03-20T16:24:49;16.17;;;12.47;;
2462;SDS011;1243;54.298;10.172;2023-03-20T16:27:23;16.50;;;12.50;;
2462;SDS011;1243;54.298;10.172;2023-03-20T16:29:52;17.10;;;13.37;;
2462;SDS011;1243;54.298;10.172;2023-03-20T16:34:53;16.10;;;12.87;;
2462;SDS011;1243;54.298;10.172;2023-03-20T16:37:25;21.37;;;14.30;;
2462;SDS011;1243;54.298;10.172;2023-03-20T16:40:00;19.20;;;12.93;;
2462;SDS011;1243;54.298;10.172;2023-03-20T16:42:48;15.50;;;11.77;;
2462;SDS011;1243;54.298;10.172;2023-03-20T16:45:20;19.77;;;12.67;;
2462;SDS011;1243;54.298;10.172;2023-03-20T16:50:38;19.70;;;12.97;;
2462;SDS011;1243;54.298;10.172;2023-03-20T16:53:09;14.67;;;11.67;;
2462;SDS011;1243;54.298;10.172;2023-03-20T16:55:41;19.43;;;11.87;;
2462;SDS011;1243;54.298;10.172;2023-03-20T16:58:10;18.63;;;12.07;;
2462;SDS011;1243;54.298;10.172;2023-03-20T17:00:56;16.00;;;10.47;;
2462;SDS011;1243;54.298;10.172;2023-03-20T17:03:26;14.07;;;10.07;;
2462;SDS011;1243;54.298;10.172;2023-03-20T17:05:55;13.03;;;8.50;;
2462;SDS011;1243;54.298;10.172;2023-03-20T17:08:41;11.87;;;9.90;;
2462;SDS011;1243;54.298;10.172;2023-03-20T17:11:14;15.73;;;8.97;;
2462;SDS011;1243;54.298;10.172;2023-03-20T17:13:46;13.47;;;9.70;;
2462;SDS011;1243;54.298;10.172;2023-03-20T17:16:16;10.87;;;8.50;;
2462;SDS011;1243;54.298;10.172;2023-03-20T17:18:44;19.90;;;10.10;;
2462;SDS011;1243;54.298;10.172;2023-03-20T17:21:11;14.53;;;9.83;;
2462;SDS011;1243;54.298;10.172;2023-03-20T17:23:37;13.80;;;8.47;;
2462;SDS011;1243;54.298;10.172;2023-03-20T17:26:04;16.23;;;9.40;;
2462;SDS011;1243;54.298;10.172;2023-03-20T17:28:35;9.97;;;8.37;;
2462;SDS011;1243;54.298;10.172;2023-03-20T17:31:01;12.33;;;8.03;;
2462;SDS011;1243;54.298;10.172;2023-03-20T17:33:29;13.30;;;7.70;;
2462;SDS011;1243;54.298;10.172;2023-03-20T17:35:57;22.93;;;9.73;;
2462;SDS011;1243;54.298;10.172;2023-03-20T17:38:24;22.37;;;8.90;;
2462;SDS011;1243;54.298;10.172;2023-03-20T17:40:50;15.87;;;9.53;;
2462;SDS011;1243;54.298;10.172;2023-03-20T17:43:16;20.43;;;9.57;;
2462;SDS011;1243;54.298;10.172;2023-03-20T17:45:43;15.90;;;11.80;;
2462;SDS011;1243;54.298;10.172;2023-03-20T17:48:13;10.00;;;7.97;;
2462;SDS011;1243;54.298;10.172;2023-03-20T17:50:45;15.87;;;8.97;;
2462;SDS011;1243;54.298;10.172;2023-03-20T17:55:53;11.90;;;9.03;;
2462;SDS011;1243;54.298;10.172;2023-03-20T17:58:20;13.83;;;10.27;;
2462;SDS011;1243;54.298;10.172;2023-03-20T18:00:50;17.50;;;9.57;;
2462;SDS011;1243;54.298;10.172;2023-03-20T18:03:17;26.17;;;12.87;;
2462;SDS011;1243;54.298;10.172;2023-03-20T18:05:47;17.57;;;11.60;;
2462;SDS011;1243;54.298;10.172;2023-03-20T18:08:14;15.57;;;11.60;;
2462;SDS011;1243;54.298;10.172;2023-03-20T18:10:46;22.40;;;13.37;;
2462;SDS011;1243;54.298;10.172;2023-03-20T18:13:13;22.87;;;16.10;;
2462;SDS011;1243;54.298;10.172;2023-03-20T18:15:42;22.37;;;15.40;;